Time;durP1;ratioP1;P1;durP2;ratioP2;P2;SDS_P1;SDS_P2;PMS_P1;PMS_P2;Temp;Humidity;BMP_temperature;BMP_pressure;BME280_temperature;BME280_humidity;BME280_pressure;Samples;Min_cycle;Max_cycle;Signal;HPM_P1;HPM_P2
2022/05/22 00:02:19;;;;;;;12.98;5.85;;;10.60;99.90;;;;;;5145934;27;20038;-59
2022/05/22 00:04:45;;;;;;;11.05;6.10;;;10.50;99.90;;;;;;5140237;27;20039;-59
2022/05/22 00:07:11;;;;;;;12.52;6.03;;;10.60;99.90;;;;;;5137449;27;20031;-60
2022/05/22 00:09:37;;;;;;;13.45;6.25;;;10.70;99.90;;;;;;5132019;27;20599;-60
2022/05/22 00:12:05;;;;;;;11.38;6.40;;;10.50;99.90;;;;;;5131611;27;20035;-60
2022/05/22 00:14:30;;;;;;;17.00;6.20;;;10.50;99.90;;;;;;5131635;27;20035;-60
2022/05/22 00:16:56;;;;;;;13.07;5.85;;;10.50;99.90;;;;;;5131235;27;20099;-60
2022/05/22 00:19:29;;;;;;;15.55;6.25;;;10.50;99.90;;;;;;5132732;27;20449;-60
2022/05/22 00:21:54;;;;;;;15.07;6.22;;;10.50;99.90;;;;;;5152039;27;20469;-60
2022/05/22 00:24:23;;;;;;;12.77;5.72;;;10.50;99.90;;;;;;5152251;27;20027;-59
2022/05/22 00:26:49;;;;;;;12.48;6.35;;;10.50;99.90;;;;;;5140947;27;20106;-59
2022/05/22 00:29:16;;;;;;;15.88;7.22;;;10.50;99.90;;;;;;5131884;27;20035;-60
2022/05/22 00:31:42;;;;;;;16.50;6.95;;;10.40;99.90;;;;;;5151970;27;20133;-60
2022/05/22 00:34:09;;;;;;;15.30;7.32;;;10.30;99.90;;;;;;5149234;27;20121;-60
2022/05/22 00:36:34;;;;;;;10.82;6.93;;;10.20;99.90;;;;;;5142392;27;20038;-60
2022/05/22 00:39:01;;;;;;;15.85;7.60;;;10.30;99.90;;;;;;5133038;27;20039;-59
2022/05/22 00:41:27;;;;;;;14.27;6.88;;;10.30;99.90;;;;;;5149545;27;20046;-60
2022/05/22 00:43:55;;;;;;;10.07;6.70;;;10.30;99.90;;;;;;5131225;27;20370;-59
2022/05/22 00:46:22;;;;;;;16.05;6.85;;;10.30;99.90;;;;;;5131372;27;20039;-60
2022/05/22 00:48:53;;;;;;;14.55;6.90;;;10.30;99.90;;;;;;5136614;27;20068;-60
2022/05/22 00:51:35;;;;;;;13.48;6.57;;;10.30;99.90;;;;;;5145079;27;20054;-60
2022/05/22 00:54:07;;;;;;;13.38;6.50;;;10.30;99.90;;;;;;5131355;27;20039;-60
2022/05/22 00:56:50;;;;;;;14.45;6.95;;;10.30;99.90;;;;;;5138181;27;20034;-60
2022/05/22 00:59:24;;;;;;;12.77;6.18;;;10.40;99.90;;;;;;5134739;27;20039;-59
2022/05/22 01:01:51;;;;;;;11.88;6.55;;;10.30;99.90;;;;;;5136792;27;20131;-59
2022/05/22 01:04:23;;;;;;;10.30;6.25;;;10.40;99.90;;;;;;5129905;27;20114;-59
2022/05/22 01:06:51;;;;;;;12.32;6.57;;;10.30;99.90;;;;;;5147915;27;20035;-60
2022/05/22 01:09:17;;;;;;;13.05;6.70;;;10.30;99.90;;;;;;5147101;27;20091;-60
2022/05/22 01:11:43;;;;;;;13.60;6.35;;;10.20;99.90;;;;;;5130981;27;20039;-60
2022/05/22 01:14:21;;;;;;;11.10;6.05;;;10.20;99.90;;;;;;5130994;27;20045;-59
2022/05/22 01:16:47;;;;;;;13.68;6.43;;;10.20;99.90;;;;;;5143622;27;20073;-59
2022/05/22 01:19:16;;;;;;;11.50;6.22;;;10.10;99.90;;;;;;5151513;27;20122;-59
2022/05/22 01:21:57;;;;;;;14.18;6.45;;;10.00;99.90;;;;;;5151126;27;20043;-60
2022/05/22 01:24:22;;;;;;;13.85;6.68;;;10.10;99.90;;;;;;5151689;27;20476;-60
2022/05/22 01:26:49;;;;;;;13.27;7.03;;;10.00;99.90;;;;;;5149760;27;20022;-60
2022/05/22 01:29:15;;;;;;;14.60;7.70;;;10.10;99.90;;;;;;5134183;27;20088;-59
2022/05/22 01:31:41;;;;;;;11.70;7.30;;;10.10;99.90;;;;;;5134605;27;20505;-59
2022/05/22 01:34:07;;;;;;;17.15;8.05;;;10.00;99.90;;;;;;5134341;27;20084;-60
2022/05/22 01:36:33;;;;;;;14.15;8.15;;;10.10;99.90;;;;;;5131990;27;20091;-60
2022/05/22 01:38:59;;;;;;;16.65;8.23;;;10.10;99.90;;;;;;5134438;27;20492;-60
2022/05/22 01:41:24;;;;;;;15.80;7.90;;;10.10;99.90;;;;;;5134218;27;20047;-60
2022/05/22 01:43:50;;;;;;;17.20;7.93;;;10.00;99.90;;;;;;5139538;27;20037;-60
2022/05/22 01:46:16;;;;;;;12.85;7.55;;;10.10;99.90;;;;;;5152431;27;20164;-59
2022/05/22 01:48:41;;;;;;;18.05;8.45;;;10.20;99.90;;;;;;5154575;27;20167;-59
2022/05/22 01:51:07;;;;;;;14.73;7.68;;;10.00;99.90;;;;;;5136319;27;20473;-60
2022/05/22 01:53:33;;;;;;;13.80;7.53;;;10.10;99.90;;;;;;5154984;27;20045;-60
2022/05/22 01:55:59;;;;;;;14.98;7.40;;;9.90;99.90;;;;;;5147693;27;20031;-60
2022/05/22 01:58:25;;;;;;;13.60;7.22;;;9.90;99.90;;;;;;5136063;27;20076;-60
2022/05/22 02:00:51;;;;;;;14.73;7.53;;;10.00;99.90;;;;;;5141974;27;20068;-60
2022/05/22 02:03:18;;;;;;;16.15;7.97;;;9.80;99.90;;;;;;5140302;27;20070;-59
2022/05/22 02:05:43;;;;;;;16.48;7.43;;;10.00;99.90;;;;;;5133904;27;20466;-59
2022/05/22 02:08:19;;;;;;;14.23;7.43;;;9.90;99.90;;;;;;5135842;27;20133;-61
2022/05/22 02:10:47;;;;;;;14.85;7.95;;;9.90;99.90;;;;;;5154356;27;20077;-60
2022/05/22 02:13:18;;;;;;;14.60;7.63;;;9.80;99.90;;;;;;5136029;27;20046;-60
2022/05/22 02:15:45;;;;;;;12.65;7.85;;;9.80;99.90;;;;;;5154639;27;20125;-59
2022/05/22 02:18:11;;;;;;;20.15;9.02;;;9.90;99.90;;;;;;5135657;27;20098;-60
2022/05/22 02:20:36;;;;;;;14.95;8.40;;;9.80;99.90;;;;;;5135829;27;20057;-60
2022/05/22 02:23:02;;;;;;;23.42;8.98;;;10.00;99.90;;;;;;5131641;27;20039;-60
2022/05/22 02:25:31;;;;;;;17.85;7.78;;;10.00;99.90;;;;;;5133440;27;20402;-59
2022/05/22 02:27:58;;;;;;;14.90;7.90;;;9.80;99.90;;;;;;5113740;27;20042;-60
2022/05/22 02:30:27;;;;;;;16.02;7.90;;;9.70;99.90;;;;;;5150726;27;20047;-60
2022/05/22 02:32:53;;;;;;;16.27;7.82;;;9.70;99.90;;;;;;5153946;27;20080;-60
2022/05/22 02:35:19;;;;;;;13.90;8.15;;;9.60;99.90;;;;;;5142337;27;20039;-59
2022/05/22 02:37:53;;;;;;;15.07;8.55;;;9.70;99.90;;;;;;5137761;27;20442;-59
2022/05/22 02:40:22;;;;;;;15.02;8.23;;;9.60;99.90;;;;;;5132974;27;20555;-60
2022/05/22 02:42:50;;;;;;;14.23;7.47;;;9.70;99.90;;;;;;5133254;27;20031;-60
2022/05/22 02:45:18;;;;;;;15.35;8.07;;;9.70;99.90;;;;;;5147669;27;20031;-60
2022/05/22 02:47:45;;;;;;;13.93;7.95;;;9.50;99.90;;;;;;5149942;27;20115;-59
2022/05/22 02:50:13;;;;;;;15.15;8.68;;;9.50;99.90;;;;;;5132032;27;20039;-59
2022/05/22 02:52:39;;;;;;;15.10;7.32;;;9.50;99.90;;;;;;5135917;27;20022;-59
2022/05/22 02:55:06;;;;;;;11.65;7.78;;;9.50;99.90;;;;;;5154323;27;20509;-60
2022/05/22 02:57:33;;;;;;;13.60;7.68;;;9.50;99.90;;;;;;5153377;27;20035;-61
2022/05/22 02:59:59;;;;;;;15.77;7.65;;;9.40;99.90;;;;;;5153478;27;20031;-60
2022/05/22 03:02:25;;;;;;;14.95;7.60;;;9.40;99.90;;;;;;5153560;27;20043;-60
2022/05/22 03:04:51;;;;;;;11.30;6.95;;;9.30;99.90;;;;;;5153547;27;20042;-59
2022/05/22 03:07:18;;;;;;;15.75;6.85;;;9.30;99.90;;;;;;5136657;27;20035;-59
2022/05/22 03:09:45;;;;;;;12.65;6.80;;;9.20;99.90;;;;;;5120376;27;20167;-60
2022/05/22 03:12:15;;;;;;;14.85;7.75;;;9.30;99.90;;;;;;5132150;27;20500;-60
2022/05/22 03:14:50;;;;;;;14.90;8.30;;;9.30;99.90;;;;;;5132776;27;20099;-60
2022/05/22 03:17:17;;;;;;;14.02;8.23;;;9.40;99.90;;;;;;5139717;27;20035;-60
2022/05/22 03:19:42;;;;;;;17.65;8.10;;;9.50;99.90;;;;;;5136849;27;20151;-60
2022/05/22 03:22:09;;;;;;;15.50;8.45;;;9.40;99.90;;;;;;5152943;27;20150;-60
2022/05/22 03:24:35;;;;;;;14.48;8.32;;;9.50;99.90;;;;;;5153267;27;20042;-60
2022/05/22 03:27:02;;;;;;;14.15;7.85;;;9.50;99.90;;;;;;5146503;27;20469;-60
2022/05/22 03:29:28;;;;;;;13.77;8.20;;;9.40;99.90;;;;;;5149677;27;20046;-60
2022/05/22 03:31:53;;;;;;;12.50;7.65;;;9.50;99.90;;;;;;5152904;27;20058;-59
2022/05/22 03:34:19;;;;;;;15.52;8.13;;;9.40;99.90;;;;;;5152827;27;20500;-60
2022/05/22 03:36:45;;;;;;;14.82;8.55;;;9.50;99.90;;;;;;5141211;27;20084;-59
2022/05/22 03:39:10;;;;;;;14.95;8.23;;;9.40;99.90;;;;;;5142131;27;20034;-61
2022/05/22 03:41:37;;;;;;;13.32;7.55;;;9.40;99.90;;;;;;5152629;27;20084;-59
2022/05/22 03:44:05;;;;;;;13.40;7.75;;;9.40;99.90;;;;;;5153056;27;20031;-60
2022/05/22 03:46:32;;;;;;;16.08;7.35;;;9.40;99.90;;;;;;5139655;27;20058;-60
2022/05/22 03:48:57;;;;;;;11.70;7.68;;;9.20;99.90;;;;;;5151650;27;20031;-60
2022/05/22 03:51:23;;;;;;;17.40;7.43;;;9.30;99.90;;;;;;5126483;27;20409;-59
2022/05/22 03:53:49;;;;;;;12.63;7.30;;;9.20;99.90;;;;;;5131924;27;20031;-60
2022/05/22 03:56:16;;;;;;;15.18;7.57;;;9.30;99.90;;;;;;5130681;27;20142;-59
2022/05/22 03:58:43;;;;;;;13.50;7.45;;;9.30;99.90;;;;;;5131142;27;20550;-60
2022/05/22 04:01:09;;;;;;;15.95;7.90;;;9.30;99.90;;;;;;5113199;27;20027;-60
2022/05/22 04:03:36;;;;;;;11.85;6.53;;;9.30;99.90;;;;;;5131900;27;20027;-59
2022/05/22 04:06:07;;;;;;;12.63;6.90;;;9.20;99.90;;;;;;5131748;27;20096;-60
2022/05/22 04:08:32;;;;;;;9.13;5.97;;;9.30;99.90;;;;;;5131703;27;20142;-60
2022/05/22 04:11:09;;;;;;;10.82;5.38;;;9.30;99.90;;;;;;5132535;27;20078;-60
2022/05/22 04:13:35;;;;;;;8.82;5.50;;;9.40;99.90;;;;;;5152467;27;20038;-60
2022/05/22 04:16:01;;;;;;;13.00;6.05;;;9.30;99.90;;;;;;5152767;27;20034;-60
2022/05/22 04:18:26;;;;;;;10.55;5.72;;;9.30;99.90;;;;;;5152226;27;20046;-60
2022/05/22 04:20:52;;;;;;;9.27;5.78;;;9.40;99.90;;;;;;5143962;27;20035;-60
2022/05/22 04:26:03;;;;;;;9.73;5.63;;;9.30;99.90;;;;;;5141981;27;20083;-59
2022/05/22 04:28:30;;;;;;;10.88;5.78;;;9.40;99.90;;;;;;5132253;27;20074;-59
2022/05/22 04:30:56;;;;;;;12.23;5.40;;;9.50;99.90;;;;;;5148089;27;20111;-60
2022/05/22 04:33:22;;;;;;;10.18;6.30;;;9.50;99.90;;;;;;5133345;27;20038;-59
2022/05/22 04:35:49;;;;;;;13.73;7.18;;;9.50;99.90;;;;;;5131092;27;20474;-59
2022/05/22 04:38:15;;;;;;;13.90;6.45;;;9.40;99.90;;;;;;5130881;27;20039;-60
2022/05/22 04:40:41;;;;;;;11.02;6.80;;;9.40;99.90;;;;;;5136942;27;20305;-59
2022/05/22 04:43:09;;;;;;;15.70;7.60;;;9.50;99.90;;;;;;5131852;27;20443;-60
2022/05/22 04:45:39;;;;;;;11.30;7.28;;;9.50;99.90;;;;;;5145960;27;20035;-60
2022/05/22 04:48:05;;;;;;;14.75;8.00;;;9.70;99.90;;;;;;5151817;27;20041;-60
2022/05/22 04:50:32;;;;;;;16.52;8.00;;;9.60;99.90;;;;;;5151697;27;20038;-60
2022/05/22 04:52:57;;;;;;;13.40;7.70;;;9.70;99.90;;;;;;5134638;27;20624;-59
2022/05/22 04:55:24;;;;;;;13.43;7.97;;;9.80;99.90;;;;;;5147433;27;20715;-60
2022/05/22 04:57:50;;;;;;;15.60;7.82;;;9.60;99.90;;;;;;5133599;27;20083;-60
2022/05/22 05:00:16;;;;;;;16.88;8.40;;;9.80;99.90;;;;;;5142886;27;20031;-59
2022/05/22 05:02:42;;;;;;;18.13;8.77;;;9.90;99.90;;;;;;5131762;27;20027;-60
2022/05/22 05:05:11;;;;;;;16.45;7.80;;;9.80;99.90;;;;;;5134928;27;20066;-60
2022/05/22 05:07:41;;;;;;;14.95;8.00;;;10.00;99.90;;;;;;5135458;27;20049;-60
2022/05/22 05:10:08;;;;;;;18.98;8.68;;;9.90;99.90;;;;;;5135108;27;20035;-59
2022/05/22 05:12:39;;;;;;;15.20;8.07;;;10.00;99.90;;;;;;5134980;27;20526;-60
2022/05/22 05:15:07;;;;;;;15.95;8.15;;;10.00;99.90;;;;;;5132240;27;20035;-60
2022/05/22 05:17:33;;;;;;;11.65;7.60;;;10.00;99.90;;;;;;5120400;27;20084;-60
2022/05/22 05:19:59;;;;;;;16.27;8.25;;;10.10;99.90;;;;;;5134915;27;20106;-60
2022/05/22 05:22:26;;;;;;;14.65;8.13;;;10.20;99.90;;;;;;5121968;27;20039;-60
2022/05/22 05:24:51;;;;;;;19.90;8.80;;;10.30;99.90;;;;;;5142371;27;20039;-60
2022/05/22 05:27:17;;;;;;;13.15;8.07;;;10.40;99.90;;;;;;5134354;27;20076;-61
2022/05/22 05:29:42;;;;;;;16.38;7.95;;;10.30;99.90;;;;;;5147988;27;20031;-61
2022/05/22 05:32:08;;;;;;;16.60;7.53;;;10.40;99.90;;;;;;5155171;27;20119;-59
2022/05/22 05:34:34;;;;;;;13.15;7.72;;;10.50;99.90;;;;;;5155259;27;20060;-60
2022/05/22 05:37:00;;;;;;;21.23;8.63;;;10.60;99.90;;;;;;5155506;27;20050;-60
2022/05/22 05:39:27;;;;;;;16.42;8.50;;;10.60;99.90;;;;;;5137023;27;20497;-60
2022/05/22 05:41:54;;;;;;;13.38;8.20;;;10.80;99.90;;;;;;5140195;27;20444;-61
2022/05/22 05:44:20;;;;;;;19.42;8.93;;;10.80;99.90;;;;;;5134540;27;20153;-59
2022/05/22 05:46:46;;;;;;;23.30;8.70;;;10.80;99.90;;;;;;5141074;27;20130;-60
2022/05/22 05:49:12;;;;;;;17.90;8.40;;;10.90;99.90;;;;;;5155089;27;20046;-60
2022/05/22 05:51:39;;;;;;;15.18;8.38;;;11.00;99.90;;;;;;5136375;27;20417;-61
2022/05/22 05:54:05;;;;;;;18.40;8.43;;;11.00;99.90;;;;;;5140355;27;20043;-60
2022/05/22 05:56:30;;;;;;;17.40;8.52;;;11.20;99.90;;;;;;5134483;27;20393;-60
2022/05/22 05:58:56;;;;;;;14.93;8.32;;;11.20;99.90;;;;;;5151582;27;20035;-59
2022/05/22 06:01:24;;;;;;;18.52;8.88;;;11.30;99.90;;;;;;5154670;27;20070;-60
2022/05/22 06:03:51;;;;;;;18.23;9.07;;;11.40;99.90;;;;;;5143506;27;20123;-61
2022/05/22 06:06:16;;;;;;;16.52;8.75;;;11.60;99.90;;;;;;5147502;27;20037;-60
2022/05/22 06:08:43;;;;;;;19.55;8.32;;;11.50;99.90;;;;;;5133546;27;20336;-60
2022/05/22 06:11:09;;;;;;;15.60;7.60;;;11.60;99.90;;;;;;5131630;27;20043;-60
2022/05/22 06:13:35;;;;;;;18.00;8.45;;;11.60;99.90;;;;;;5153028;27;20034;-60
2022/05/22 06:16:04;;;;;;;20.85;9.40;;;11.70;99.90;;;;;;5133722;27;20494;-60
2022/05/22 06:18:30;;;;;;;20.05;9.80;;;11.90;99.90;;;;;;5133795;27;20406;-59
2022/05/22 06:20:55;;;;;;;20.45;8.50;;;12.00;99.90;;;;;;5133739;27;20041;-61
2022/05/22 06:23:21;;;;;;;18.25;8.43;;;12.00;99.90;;;;;;5139340;27;20031;-60
2022/05/22 06:25:46;;;;;;;19.67;8.50;;;12.10;99.90;;;;;;5136955;27;20051;-60
2022/05/22 06:28:16;;;;;;;19.77;7.80;;;12.20;99.90;;;;;;5154092;27;20030;-59
2022/05/22 06:30:42;;;;;;;17.88;8.05;;;12.30;99.90;;;;;;5142786;27;20134;-60
2022/05/22 06:33:09;;;;;;;21.35;9.13;;;12.30;99.90;;;;;;5135156;27;20082;-60
2022/05/22 06:35:39;;;;;;;15.40;8.40;;;12.50;99.90;;;;;;5144224;27;20513;-60
2022/05/22 06:38:06;;;;;;;19.20;8.73;;;12.60;99.90;;;;;;5154161;27;20062;-59
2022/05/22 06:40:32;;;;;;;16.67;7.95;;;12.60;99.90;;;;;;5146673;27;20457;-59
2022/05/22 06:43:01;;;;;;;17.55;7.55;;;12.60;99.90;;;;;;5131913;27;20035;-60
2022/05/22 06:45:28;;;;;;;15.15;7.28;;;12.70;99.90;;;;;;5133274;27;20035;-58
2022/05/22 06:47:53;;;;;;;16.50;6.82;;;12.80;99.90;;;;;;5133460;27;20118;-58
2022/05/22 06:50:23;;;;;;;17.33;6.97;;;12.80;99.90;;;;;;5133359;27;20110;-60
2022/05/22 06:52:49;;;;;;;16.67;7.25;;;12.90;99.90;;;;;;5129387;27;20042;-61
2022/05/22 06:55:16;;;;;;;18.67;6.13;;;13.00;99.90;;;;;;5137458;27;20027;-60
2022/05/22 06:57:42;;;;;;;17.83;6.22;;;13.10;99.90;;;;;;5139047;27;20042;-59
2022/05/22 07:00:14;;;;;;;14.00;5.85;;;13.20;99.90;;;;;;5153868;27;20032;-60
2022/05/22 07:02:41;;;;;;;14.45;5.70;;;13.30;99.90;;;;;;5153620;27;20163;-60
2022/05/22 07:05:08;;;;;;;18.50;6.07;;;13.30;99.90;;;;;;5137674;27;20386;-60
2022/05/22 07:07:34;;;;;;;16.23;5.72;;;13.40;99.90;;;;;;5133000;27;20563;-60
2022/05/22 07:10:00;;;;;;;19.25;5.78;;;13.40;99.90;;;;;;5141164;27;20039;-60
2022/05/22 07:12:26;;;;;;;17.27;4.95;;;13.50;99.90;;;;;;5153635;27;20060;-60
2022/05/22 07:14:56;;;;;;;11.98;5.40;;;13.50;99.90;;;;;;5153669;27;20039;-59
2022/05/22 07:17:24;;;;;;;13.70;4.70;;;13.60;99.90;;;;;;5153192;27;20049;-59
2022/05/22 07:19:54;;;;;;;15.70;5.38;;;13.70;99.90;;;;;;5153409;27;20039;-60
2022/05/22 07:22:20;;;;;;;10.65;4.72;;;13.70;99.90;;;;;;5134239;27;20042;-59
2022/05/22 07:24:46;;;;;;;13.07;4.43;;;13.70;99.90;;;;;;5152555;27;20070;-60
2022/05/22 07:27:12;;;;;;;10.55;4.03;;;13.80;99.90;;;;;;5140487;27;20125;-60
2022/05/22 07:29:37;;;;;;;11.23;3.95;;;13.80;99.90;;;;;;5127890;27;20046;-60
2022/05/22 07:32:04;;;;;;;13.15;4.60;;;13.90;99.90;;;;;;5131961;27;20168;-60
2022/05/22 07:34:31;;;;;;;10.50;4.57;;;14.00;99.90;;;;;;5113404;27;20039;-59
2022/05/22 07:37:03;;;;;;;11.65;3.97;;;14.20;99.90;;;;;;5128813;27;20057;-60
2022/05/22 07:39:29;;;;;;;12.85;4.10;;;14.10;99.90;;;;;;5149392;27;20031;-60
2022/05/22 07:41:55;;;;;;;9.23;3.78;;;14.10;99.90;;;;;;5124551;27;20051;-59
2022/05/22 07:44:21;;;;;;;14.55;3.97;;;14.30;99.90;;;;;;5124535;27;20474;-60
2022/05/22 07:46:48;;;;;;;11.95;3.95;;;14.20;99.90;;;;;;5122561;27;20046;-60
2022/05/22 07:50:16;;;;;;;12.40;3.75;;;14.30;99.90;;;;;;5124005;27;20031;-60
2022/05/22 07:52:08;;;;;;;14.15;4.38;;;14.40;99.90;;;;;;5122437;27;20716;-59
2022/05/22 07:54:39;;;;;;;10.88;3.67;;;14.40;99.90;;;;;;5135468;27;20024;-60
2022/05/22 07:57:08;;;;;;;12.73;3.35;;;14.50;99.90;;;;;;5122347;27;20351;-60
2022/05/22 07:59:38;;;;;;;11.90;3.60;;;14.60;99.90;;;;;;5123274;27;20042;-60
2022/05/22 08:02:06;;;;;;;9.85;3.85;;;14.70;99.90;;;;;;5123516;27;20039;-60
2022/05/22 08:04:32;;;;;;;11.68;3.10;;;14.70;99.90;;;;;;5123344;27;20060;-60
2022/05/22 08:06:58;;;;;;;11.73;3.40;;;14.70;99.90;;;;;;5121340;27;20032;-60
2022/05/22 08:09:23;;;;;;;11.68;3.20;;;14.80;99.90;;;;;;5120224;27;20038;-60
2022/05/22 08:11:49;;;;;;;14.32;3.45;;;14.90;99.90;;;;;;5121131;27;20039;-61
2022/05/22 08:14:15;;;;;;;10.48;2.45;;;15.00;99.90;;;;;;5120726;27;20049;-60
2022/05/22 08:16:42;;;;;;;10.00;3.33;;;15.10;99.90;;;;;;5103931;27;20031;-60
2022/05/22 08:19:09;;;;;;;10.70;3.33;;;15.10;99.90;;;;;;5123838;27;20463;-60
2022/05/22 08:21:34;;;;;;;11.00;2.70;;;15.10;99.90;;;;;;5107761;27;20195;-59
2022/05/22 08:24:00;;;;;;;13.05;3.20;;;15.20;99.90;;;;;;5107406;27;20023;-61
2022/05/22 08:26:27;;;;;;;100.10;11.63;;;15.30;99.90;;;;;;5120944;27;20040;-60
2022/05/22 08:28:53;;;;;;;10.45;2.95;;;15.50;99.90;;;;;;5117174;27;20073;-59
2022/05/22 08:31:19;;;;;;;10.90;2.80;;;15.60;99.90;;;;;;5118766;27;20112;-60
2022/05/22 08:33:45;;;;;;;11.40;2.58;;;15.60;99.90;;;;;;5121786;27;20039;-61
2022/05/22 08:36:11;;;;;;;14.50;2.40;;;15.60;99.90;;;;;;5122978;27;20073;-59
2022/05/22 08:38:36;;;;;;;13.48;2.55;;;15.70;99.90;;;;;;5123580;27;20046;-61
2022/05/22 08:41:21;;;;;;;7.80;2.47;;;15.70;99.90;;;;;;5124666;27;20035;-61
2022/05/22 08:43:51;;;;;;;9.73;2.50;;;15.80;99.90;;;;;;5122185;27;20023;-59
2022/05/22 08:46:29;;;;;;;9.20;2.00;;;15.90;99.90;;;;;;5124700;27;20027;-60
2022/05/22 08:48:58;;;;;;;8.30;1.80;;;16.00;99.90;;;;;;5128027;27;20062;-59
2022/05/22 08:51:29;;;;;;;12.15;2.38;;;16.20;99.90;;;;;;5129283;27;20053;-60
2022/05/22 08:53:58;;;;;;;14.75;2.50;;;16.20;99.90;;;;;;5129314;27;20039;-60
2022/05/22 08:59:22;;;;;;;7.72;2.05;;;16.40;99.90;;;;;;5130415;27;20617;-60
2022/05/22 09:02:10;;;;;;;8.57;2.17;;;16.50;99.90;;;;;;5129375;27;20127;-59
2022/05/22 09:04:45;;;;;;;7.22;1.98;;;16.60;99.90;;;;;;5132997;27;20400;-59
2022/05/22 09:07:39;;;;;;;10.02;2.08;;;16.80;99.90;;;;;;5134742;27;20075;-59
2022/05/22 09:10:09;;;;;;;8.40;1.92;;;17.10;99.90;;;;;;5134347;27;20104;-60
2022/05/22 09:12:49;;;;;;;8.90;2.10;;;17.40;99.90;;;;;;5134803;27;20042;-59
2022/05/22 09:15:15;;;;;;;10.52;2.30;;;17.40;99.90;;;;;;5132944;27;20043;-58
2022/05/22 09:17:56;;;;;;;11.27;2.78;;;17.60;99.90;;;;;;5134499;27;20027;-62
2022/05/22 09:20:38;;;;;;;11.27;2.55;;;17.70;99.90;;;;;;5134988;27;20541;-59
2022/05/22 09:23:25;;;;;;;6.32;1.60;;;18.00;99.90;;;;;;5133670;27;20035;-59
2022/05/22 09:26:02;;;;;;;10.40;2.08;;;17.90;99.90;;;;;;5131787;27;20067;-60
2022/05/22 09:28:44;;;;;;;9.05;2.22;;;18.10;99.90;;;;;;5134368;27;20027;-59
2022/05/22 09:31:35;;;;;;;11.82;2.35;;;18.40;99.90;;;;;;5134516;27;20058;-60
2022/05/22 09:34:04;;;;;;;6.05;1.60;;;18.40;99.90;;;;;;5109887;27;20046;-60
2022/05/22 09:37:11;;;;;;;9.30;2.15;;;18.50;99.90;;;;;;5133804;27;20035;-60
2022/05/22 09:40:07;;;;;;;9.23;2.42;;;18.40;99.90;;;;;;5132760;27;20500;-59
2022/05/22 09:42:51;;;;;;;9.52;2.20;;;18.50;99.90;;;;;;5133449;27;20061;-59
2022/05/22 09:45:43;;;;;;;5.95;1.90;;;18.50;99.90;;;;;;5135988;27;20035;-59
2022/05/22 09:48:29;;;;;;;11.85;2.63;;;18.50;99.90;;;;;;5128906;27;20490;-58
2022/05/22 09:51:34;;;;;;;7.82;2.47;;;18.50;99.90;;;;;;5132525;27;20396;-59
2022/05/22 09:54:14;;;;;;;9.57;2.10;;;18.70;99.90;;;;;;5132543;27;20054;-58
2022/05/22 09:56:49;;;;;;;8.30;2.08;;;18.80;99.90;;;;;;5131062;27;20133;-58
2022/05/22 09:59:30;;;;;;;8.60;2.15;;;;;;;;;;5129540;27;20043;-58
2022/05/22 10:02:02;;;;;;;7.07;2.00;;;19.20;99.90;;;;;;5130486;27;20088;-58
2022/05/22 10:04:56;;;;;;;7.25;2.08;;;19.30;99.90;;;;;;5131681;27;20095;-58
2022/05/22 10:08:07;;;;;;;9.90;1.92;;;19.20;99.90;;;;;;5122914;27;20440;-58
2022/05/22 10:11:06;;;;;;;8.95;2.03;;;19.30;99.90;;;;;;5114938;27;20538;-59
2022/05/22 10:13:50;;;;;;;8.55;1.88;;;19.20;99.90;;;;;;5122716;27;20051;-60
2022/05/22 10:16:30;;;;;;;7.97;1.90;;;19.00;99.90;;;;;;5131553;27;20046;-59
2022/05/22 10:19:14;;;;;;;6.65;1.60;;;18.90;99.90;;;;;;5121165;27;20039;-59
2022/05/22 10:21:46;;;;;;;;;;;19.30;99.90;;;;;;5122814;27;20046;-59
2022/05/22 10:24:12;;;;;;;8.77;1.73;;;19.10;99.90;;;;;;5136873;27;19957;-60
2022/05/22 10:26:58;;;;;;;6.88;1.58;;;19.10;99.90;;;;;;5125295;27;20035;-59
2022/05/22 10:30:26;;;;;;;7.40;1.65;;;19.10;99.90;;;;;;5124900;27;20405;-59
2022/05/22 10:33:09;;;;;;;8.98;1.80;;;19.20;99.90;;;;;;5019828;28;20485;-60
2022/05/22 10:35:57;;;;;;;8.18;1.70;;;19.40;99.90;;;;;;5106507;27;20023;-59
2022/05/22 10:38:26;;;;;;;6.78;1.85;;;19.50;99.90;;;;;;5124771;27;20039;-59
2022/05/22 10:43:42;;;;;;;6.22;1.55;;;19.80;99.90;;;;;;5123485;27;20085;-59
2022/05/22 10:46:08;;;;;;;8.75;1.77;;;19.80;99.90;;;;;;5121714;27;20071;-59
2022/05/22 10:48:35;;;;;;;7.15;1.50;;;19.80;99.90;;;;;;5123025;27;20498;-60
2022/05/22 10:51:06;;;;;;;6.78;1.75;;;19.80;99.90;;;;;;5123231;27;20035;-60
2022/05/22 10:53:38;;;;;;;7.05;1.60;;;20.00;99.90;;;;;;5122700;27;20063;-59
2022/05/22 10:56:23;;;;;;;5.65;1.30;;;20.10;99.90;;;;;;5122322;27;20078;-59
2022/05/22 10:59:14;;;;;;;8.13;1.60;;;20.20;99.90;;;;;;5122400;27;20045;-59
2022/05/22 11:01:40;;;;;;;6.65;1.67;;;20.10;99.90;;;;;;5118662;27;20043;-60
2022/05/22 11:04:15;;;;;;;6.72;1.75;;;20.10;99.90;;;;;;5122130;27;20126;-59
2022/05/22 11:06:59;;;;;;;5.72;1.63;;;20.20;99.90;;;;;;5123664;27;20031;-60
2022/05/22 11:09:30;;;;;;;5.38;1.40;;;20.30;99.90;;;;;;5105533;27;20046;-60
2022/05/22 11:12:05;;;;;;;7.70;1.58;;;20.50;99.70;;;;;;5128551;27;20038;-60
2022/05/22 11:14:33;;;;;;;6.05;1.65;;;20.50;99.90;;;;;;5151469;27;20042;-59
2022/05/22 11:17:13;;;;;;;6.53;1.45;;;20.50;99.90;;;;;;5121310;27;20504;-59
2022/05/22 11:19:41;;;;;;;5.63;1.20;;;20.70;99.80;;;;;;5137442;27;20477;-60
2022/05/22 11:22:18;;;;;;;5.57;1.30;;;21.00;98.80;;;;;;5138287;27;20089;-59
2022/05/22 11:25:16;;;;;;;7.85;1.73;;;21.00;99.90;;;;;;5132119;27;20063;-57
2022/05/22 11:28:05;;;;;;;7.57;1.67;;;21.20;99.00;;;;;;5130929;27;20063;-59
2022/05/22 11:30:55;;;;;;;9.88;1.80;;;21.20;98.30;;;;;;5125799;27;20035;-59
2022/05/22 11:33:30;;;;;;;8.40;1.50;;;21.30;99.70;;;;;;5133681;27;20162;-58
2022/05/22 11:36:14;;;;;;;5.40;1.30;;;21.60;95.80;;;;;;5138136;27;20039;-58
2022/05/22 11:38:45;;;;;;;;;;;21.70;97.10;;;;;;5132664;27;20042;-59
2022/05/22 11:41:13;;;;;;;6.30;1.50;;;21.80;97.20;;;;;;5131723;27;20377;-59
2022/05/22 11:43:52;;;;;;;6.63;1.33;;;22.00;99.00;;;;;;5141981;27;20070;-58
2022/05/22 11:46:26;;;;;;;4.75;1.13;;;22.30;98.20;;;;;;5131890;27;20038;-59
2022/05/22 11:49:23;;;;;;;5.63;1.13;;;22.20;95.90;;;;;;5131913;27;20373;-59
2022/05/22 11:52:53;;;;;;;6.95;1.38;;;22.10;97.10;;;;;;5132640;27;20024;-59
2022/05/22 11:55:14;;;;;;;6.72;1.30;;;21.70;96.40;;;;;;5122226;27;20043;-59
2022/05/22 11:58:08;;;;;;;7.18;1.20;;;21.40;95.90;;;;;;5131894;27;20031;-59
2022/05/22 12:00:57;;;;;;;5.32;1.40;;;21.60;95.50;;;;;;5145266;27;20053;-58
2022/05/22 12:03:54;;;;;;;6.38;1.27;;;21.80;96.30;;;;;;5137337;27;20104;-58
2022/05/22 12:06:25;;;;;;;6.72;1.38;;;22.20;95.80;;;;;;5131706;27;20363;-59
2022/05/22 12:09:01;;;;;;;5.60;1.15;;;22.00;95.10;;;;;;5141932;27;20397;-57
2022/05/22 12:11:41;;;;;;;5.53;1.25;;;21.70;98.10;;;;;;5152155;27;20038;-59
2022/05/22 12:14:34;;;;;;;7.45;1.33;;;21.70;96.30;;;;;;5141506;27;20158;-58
2022/05/22 12:17:20;;;;;;;8.52;1.35;;;21.80;97.00;;;;;;5131598;27;20081;-58
2022/05/22 12:20:03;;;;;;;7.15;1.50;;;21.60;97.10;;;;;;5131350;27;20540;-59
2022/05/22 12:25:22;;;;;;;6.40;1.42;;;21.30;97.10;;;;;;5131356;27;20414;-58
2022/05/22 12:27:49;;;;;;;6.03;1.50;;;21.30;97.00;;;;;;5131591;27;20035;-57
2022/05/22 12:30:37;;;;;;;6.55;1.50;;;21.40;96.50;;;;;;5130043;27;20265;-60
2022/05/22 12:33:12;;;;;;;7.50;1.30;;;22.00;97.50;;;;;;5131410;27;20147;-60
2022/05/22 12:35:41;;;;;;;7.32;1.45;;;22.20;96.10;;;;;;5131278;27;20047;-60
2022/05/22 12:38:09;;;;;;;4.35;1.05;;;22.70;97.20;;;;;;5139752;27;20046;-59
2022/05/22 12:40:54;;;;;;;6.30;1.25;;;23.00;96.10;;;;;;5147167;27;20031;-59
2022/05/22 12:43:23;;;;;;;5.32;1.25;;;23.40;94.60;;;;;;5152069;27;20037;-61
2022/05/22 12:45:53;;;;;;;5.13;1.25;;;23.40;94.80;;;;;;5151996;27;20043;-59
2022/05/22 12:48:27;;;;;;;3.38;0.80;;;23.60;91.40;;;;;;5151905;27;21325;-60
2022/05/22 12:51:05;;;;;;;;;;;23.70;92.20;;;;;;5152505;27;20077;-60
2022/05/22 12:53:33;;;;;;;8.18;1.35;;;23.70;94.60;;;;;;5151369;27;20003;-59
2022/05/22 12:56:16;;;;;;;4.85;1.10;;;22.70;93.80;;;;;;5148010;27;20031;-60
2022/05/22 12:58:46;;;;;;;6.32;1.05;;;22.80;91.80;;;;;;5150960;27;20519;-59
2022/05/22 13:01:31;;;;;;;5.38;1.17;;;22.50;93.90;;;;;;5133113;27;20046;-59
2022/05/22 13:04:00;;;;;;;5.03;1.10;;;23.40;93.30;;;;;;5151923;27;20085;-60
2022/05/22 13:06:52;;;;;;;5.63;1.33;;;23.70;93.70;;;;;;5151728;27;20038;-60
2022/05/22 13:09:54;;;;;;;4.72;0.80;;;24.10;92.80;;;;;;5139811;27;20054;-61
2022/05/22 13:12:31;;;;;;;7.47;1.58;;;23.80;92.00;;;;;;5047403;28;20041;-60
2022/05/22 13:15:14;;;;;;;5.90;0.90;;;23.30;92.40;;;;;;5117108;27;20054;-60
2022/05/22 13:17:52;;;;;;;7.38;1.27;;;23.20;93.00;;;;;;5130979;27;20054;-60